Moscow, Pennsylvania
Current Conditions -  °F | °C
As of 10:54 AM on Friday 19 Dec 2014 (Local Time) from KAVP Reporting Station
Overcast Overcast  
Wind Chill: 21°   Ceiling: 2800
Heat Index: 31°   Visibility: 10mi
Dew Point: 19°   Wind: 13mph
Humidity: 61%   Direction: 310°NW
Pressure: 30.09"   Gusts: NA
Location:  41.34°N, 75.52°W
Report Text: KAVP 191554Z AUTO 31011KT 10SM OVC028 M01/M07 A3009 RMK AO2 SLP196 T10061072
Loading
Personal Weather Stations






























Interactive Weather Map New forecast layout! Learn more

10-Day Weather Forecast

Advertisements
Track Severe Weather on mobile